sensor_id;sensor_type;location;lat;lon;timestamp;temperature;humidity
31527;DHT22;18136;42.236;-73.040;2022-08-07T00:01:54;24.70;99.90
31527;DHT22;18136;42.236;-73.040;2022-08-07T00:04:20;24.60;99.90
31527;DHT22;18136;42.236;-73.040;2022-08-07T00:06:46;24.50;99.90
31527;DHT22;18136;42.236;-73.040;2022-08-07T00:09:12;24.50;99.90
31527;DHT22;18136;42.236;-73.040;2022-08-07T00:11:38;24.40;99.90
31527;DHT22;18136;42.236;-73.040;2022-08-07T00:14:04;24.40;99.90
31527;DHT22;18136;42.236;-73.040;2022-08-07T00:16:30;24.40;99.90
31527;DHT22;18136;42.236;-73.040;2022-08-07T00:18:56;24.40;99.90
31527;DHT22;18136;42.236;-73.040;2022-08-07T00:21:22;24.30;99.90
31527;DHT22;18136;42.236;-73.040;2022-08-07T00:23:51;24.30;99.90
31527;DHT22;18136;42.236;-73.040;2022-08-07T00:26:17;24.30;99.90
31527;DHT22;18136;42.236;-73.040;2022-08-07T00:28:44;24.30;99.90
31527;DHT22;18136;42.236;-73.040;2022-08-07T00:31:10;24.20;99.90
31527;DHT22;18136;42.236;-73.040;2022-08-07T00:33:37;24.20;99.90
31527;DHT22;18136;42.236;-73.040;2022-08-07T00:36:05;24.10;99.90
31527;DHT22;18136;42.236;-73.040;2022-08-07T00:38:32;24.10;99.90
31527;DHT22;18136;42.236;-73.040;2022-08-07T00:41:03;24.10;99.90
31527;DHT22;18136;42.236;-73.040;2022-08-07T00:43:30;24.00;99.90
31527;DHT22;18136;42.236;-73.040;2022-08-07T00:46:00;24.00;99.90
31527;DHT22;18136;42.236;-73.040;2022-08-07T00:48:30;24.00;99.90
31527;DHT22;18136;42.236;-73.040;2022-08-07T00:51:00;23.90;99.90
31527;DHT22;18136;42.236;-73.040;2022-08-07T00:53:29;23.90;99.90
31527;DHT22;18136;42.236;-73.040;2022-08-07T00:55:56;23.90;99.90
31527;DHT22;18136;42.236;-73.040;2022-08-07T00:58:23;23.90;99.90
31527;DHT22;18136;42.236;-73.040;2022-08-07T01:00:49;23.80;99.90
31527;DHT22;18136;42.236;-73.040;2022-08-07T01:03:17;23.90;99.90
31527;DHT22;18136;42.236;-73.040;2022-08-07T01:05:44;23.80;99.90
31527;DHT22;18136;42.236;-73.040;2022-08-07T01:08:11;23.80;99.90
31527;DHT22;18136;42.236;-73.040;2022-08-07T01:11:14;23.80;99.90
31527;DHT22;18136;42.236;-73.040;2022-08-07T01:13:42;23.80;99.90
31527;DHT22;18136;42.236;-73.040;2022-08-07T01:16:09;23.70;99.90
31527;DHT22;18136;42.236;-73.040;2022-08-07T01:18:35;23.70;99.90
31527;DHT22;18136;42.236;-73.040;2022-08-07T01:23:33;23.70;99.90
31527;DHT22;18136;42.236;-73.040;2022-08-07T01:26:02;23.70;99.90
31527;DHT22;18136;42.236;-73.040;2022-08-07T01:28:29;23.70;99.90
31527;DHT22;18136;42.236;-73.040;2022-08-07T01:31:00;23.70;99.90
31527;DHT22;18136;42.236;-73.040;2022-08-07T01:33:29;23.60;99.90
31527;DHT22;18136;42.236;-73.040;2022-08-07T01:35:57;23.70;99.90
31527;DHT22;18136;42.236;-73.040;2022-08-07T01:38:31;23.70;99.90
31527;DHT22;18136;42.236;-73.040;2022-08-07T01:41:00;23.60;99.90
31527;DHT22;18136;42.236;-73.040;2022-08-07T01:43:28;23.60;99.90
31527;DHT22;18136;42.236;-73.040;2022-08-07T01:45:56;23.60;99.90
31527;DHT22;18136;42.236;-73.040;2022-08-07T01:48:22;23.60;99.90
31527;DHT22;18136;42.236;-73.040;2022-08-07T01:51:10;23.60;99.90
31527;DHT22;18136;42.236;-73.040;2022-08-07T01:53:41;23.60;99.90
31527;DHT22;18136;42.236;-73.040;2022-08-07T01:56:12;23.60;99.90
31527;DHT22;18136;42.236;-73.040;2022-08-07T01:58:48;23.50;99.90
31527;DHT22;18136;42.236;-73.040;2022-08-07T02:01:21;23.50;99.90
31527;DHT22;18136;42.236;-73.040;2022-08-07T02:06:55;23.50;99.90
31527;DHT22;18136;42.236;-73.040;2022-08-07T02:09:23;23.50;99.90
31527;DHT22;18136;42.236;-73.040;2022-08-07T02:11:51;23.50;99.90
31527;DHT22;18136;42.236;-73.040;2022-08-07T02:14:19;23.50;99.90
31527;DHT22;18136;42.236;-73.040;2022-08-07T02:16:48;23.40;99.90
31527;DHT22;18136;42.236;-73.040;2022-08-07T02:19:20;23.40;99.90
31527;DHT22;18136;42.236;-73.040;2022-08-07T02:21:51;23.40;99.90
31527;DHT22;18136;42.236;-73.040;2022-08-07T02:24:19;23.40;99.90
31527;DHT22;18136;42.236;-73.040;2022-08-07T02:26:46;23.40;99.90
31527;DHT22;18136;42.236;-73.040;2022-08-07T02:29:23;23.30;99.90
31527;DHT22;18136;42.236;-73.040;2022-08-07T02:31:52;23.30;99.90
31527;DHT22;18136;42.236;-73.040;2022-08-07T02:34:18;23.30;99.90
31527;DHT22;18136;42.236;-73.040;2022-08-07T02:36:45;23.30;99.90
31527;DHT22;18136;42.236;-73.040;2022-08-07T02:39:13;23.30;99.90
31527;DHT22;18136;42.236;-73.040;2022-08-07T02:41:39;23.30;99.90
31527;DHT22;18136;42.236;-73.040;2022-08-07T02:44:27;23.30;99.90
31527;DHT22;18136;42.236;-73.040;2022-08-07T02:46:55;23.30;99.90
31527;DHT22;18136;42.236;-73.040;2022-08-07T02:49:40;23.30;99.90
31527;DHT22;18136;42.236;-73.040;2022-08-07T02:52:22;23.20;99.90
31527;DHT22;18136;42.236;-73.040;2022-08-07T02:54:53;23.20;99.90
31527;DHT22;18136;42.236;-73.040;2022-08-07T02:57:22;23.20;99.90
31527;DHT22;18136;42.236;-73.040;2022-08-07T02:59:49;23.20;99.90
31527;DHT22;18136;42.236;-73.040;2022-08-07T03:02:16;23.20;99.90
31527;DHT22;18136;42.236;-73.040;2022-08-07T03:04:45;23.10;99.90
31527;DHT22;18136;42.236;-73.040;2022-08-07T03:07:12;23.10;99.90
31527;DHT22;18136;42.236;-73.040;2022-08-07T03:09:40;23.10;99.90
31527;DHT22;18136;42.236;-73.040;2022-08-07T03:12:09;23.10;99.90
31527;DHT22;18136;42.236;-73.040;2022-08-07T03:14:37;23.10;99.90
31527;DHT22;18136;42.236;-73.040;2022-08-07T03:17:04;23.10;99.90
31527;DHT22;18136;42.236;-73.040;2022-08-07T03:19:31;23.10;99.90
31527;DHT22;18136;42.236;-73.040;2022-08-07T03:21:58;23.10;99.90
31527;DHT22;18136;42.236;-73.040;2022-08-07T03:24:25;23.10;99.90
31527;DHT22;18136;42.236;-73.040;2022-08-07T03:26:52;23.00;99.90
31527;DHT22;18136;42.236;-73.040;2022-08-07T03:29:41;23.00;99.90
31527;DHT22;18136;42.236;-73.040;2022-08-07T03:32:11;23.00;99.90
31527;DHT22;18136;42.236;-73.040;2022-08-07T03:34:38;23.00;99.90
31527;DHT22;18136;42.236;-73.040;2022-08-07T03:37:07;23.00;99.90
31527;DHT22;18136;42.236;-73.040;2022-08-07T03:39:41;23.00;99.90
31527;DHT22;18136;42.236;-73.040;2022-08-07T03:42:15;23.00;99.90
31527;DHT22;18136;42.236;-73.040;2022-08-07T03:44:42;22.90;99.90
31527;DHT22;18136;42.236;-73.040;2022-08-07T03:47:10;22.90;99.90
31527;DHT22;18136;42.236;-73.040;2022-08-07T03:49:37;22.90;99.90
31527;DHT22;18136;42.236;-73.040;2022-08-07T03:52:05;22.90;99.90
31527;DHT22;18136;42.236;-73.040;2022-08-07T03:54:44;22.90;99.90
31527;DHT22;18136;42.236;-73.040;2022-08-07T03:57:11;22.90;99.90
31527;DHT22;18136;42.236;-73.040;2022-08-07T03:59:43;22.80;99.90
31527;DHT22;18136;42.236;-73.040;2022-08-07T04:02:10;22.80;99.90
31527;DHT22;18136;42.236;-73.040;2022-08-07T04:04:37;22.80;99.90
31527;DHT22;18136;42.236;-73.040;2022-08-07T04:07:03;22.80;99.90
31527;DHT22;18136;42.236;-73.040;2022-08-07T04:09:32;22.80;99.90
31527;DHT22;18136;42.236;-73.040;2022-08-07T04:11:59;22.80;99.90
31527;DHT22;18136;42.236;-73.040;2022-08-07T04:14:26;22.80;99.90
31527;DHT22;18136;42.236;-73.040;2022-08-07T04:16:53;22.80;99.90
31527;DHT22;18136;42.236;-73.040;2022-08-07T04:19:19;22.70;99.90
31527;DHT22;18136;42.236;-73.040;2022-08-07T04:21:46;22.70;99.90
31527;DHT22;18136;42.236;-73.040;2022-08-07T04:24:12;22.70;99.90
31527;DHT22;18136;42.236;-73.040;2022-08-07T04:26:57;22.70;99.90
31527;DHT22;18136;42.236;-73.040;2022-08-07T04:29:27;22.70;99.90
31527;DHT22;18136;42.236;-73.040;2022-08-07T04:31:54;22.70;99.90
31527;DHT22;18136;42.236;-73.040;2022-08-07T04:34:21;22.70;99.90
31527;DHT22;18136;42.236;-73.040;2022-08-07T04:36:48;22.70;99.90
31527;DHT22;18136;42.236;-73.040;2022-08-07T04:39:17;22.70;99.90
31527;DHT22;18136;42.236;-73.040;2022-08-07T04:41:46;22.70;99.90
31527;DHT22;18136;42.236;-73.040;2022-08-07T04:44:14;22.70;99.90
31527;DHT22;18136;42.236;-73.040;2022-08-07T04:47:06;22.60;99.90
31527;DHT22;18136;42.236;-73.040;2022-08-07T04:49:40;22.60;99.90
31527;DHT22;18136;42.236;-73.040;2022-08-07T04:55:02;22.60;99.90
31527;DHT22;18136;42.236;-73.040;2022-08-07T04:57:51;22.50;99.90
31527;DHT22;18136;42.236;-73.040;2022-08-07T05:05:52;22.50;99.90
31527;DHT22;18136;42.236;-73.040;2022-08-07T05:08:27;22.50;99.90
31527;DHT22;18136;42.236;-73.040;2022-08-07T05:11:07;22.50;99.90
31527;DHT22;18136;42.236;-73.040;2022-08-07T05:13:38;22.50;99.90
31527;DHT22;18136;42.236;-73.040;2022-08-07T05:16:09;22.50;99.90
31527;DHT22;18136;42.236;-73.040;2022-08-07T05:18:53;22.50;99.90
31527;DHT22;18136;42.236;-73.040;2022-08-07T05:21:24;22.40;99.90
31527;DHT22;18136;42.236;-73.040;2022-08-07T05:23:55;22.50;99.90
31527;DHT22;18136;42.236;-73.040;2022-08-07T05:26:24;22.40;99.90
31527;DHT22;18136;42.236;-73.040;2022-08-07T05:32:06;22.40;99.90
31527;DHT22;18136;42.236;-73.040;2022-08-07T05:34:35;22.40;99.90
31527;DHT22;18136;42.236;-73.040;2022-08-07T05:37:05;22.40;99.90
31527;DHT22;18136;42.236;-73.040;2022-08-07T05:39:32;22.40;99.90
31527;DHT22;18136;42.236;-73.040;2022-08-07T05:42:00;22.30;99.90
31527;DHT22;18136;42.236;-73.040;2022-08-07T05:44:27;22.30;99.90
31527;DHT22;18136;42.236;-73.040;2022-08-07T05:46:55;22.40;99.90
31527;DHT22;18136;42.236;-73.040;2022-08-07T05:49:23;22.40;99.90
31527;DHT22;18136;42.236;-73.040;2022-08-07T05:51:50;22.30;99.90
31527;DHT22;18136;42.236;-73.040;2022-08-07T05:54:19;22.30;99.90
31527;DHT22;18136;42.236;-73.040;2022-08-07T05:56:45;22.30;99.90
31527;DHT22;18136;42.236;-73.040;2022-08-07T05:59:16;22.30;99.90
31527;DHT22;18136;42.236;-73.040;2022-08-07T06:01:44;22.30;99.90
31527;DHT22;18136;42.236;-73.040;2022-08-07T06:04:13;22.30;99.90
31527;DHT22;18136;42.236;-73.040;2022-08-07T06:06:40;22.30;99.90
31527;DHT22;18136;42.236;-73.040;2022-08-07T06:09:09;22.20;99.90
31527;DHT22;18136;42.236;-73.040;2022-08-07T06:11:36;22.20;99.90
31527;DHT22;18136;42.236;-73.040;2022-08-07T06:14:04;22.20;99.90
31527;DHT22;18136;42.236;-73.040;2022-08-07T06:16:35;22.10;99.90
31527;DHT22;18136;42.236;-73.040;2022-08-07T06:19:03;22.20;99.90
31527;DHT22;18136;42.236;-73.040;2022-08-07T06:21:29;22.10;99.90
31527;DHT22;18136;42.236;-73.040;2022-08-07T06:23:56;22.10;99.90
31527;DHT22;18136;42.236;-73.040;2022-08-07T06:26:23;22.10;99.90
31527;DHT22;18136;42.236;-73.040;2022-08-07T06:28:52;22.10;99.90
31527;DHT22;18136;42.236;-73.040;2022-08-07T06:31:19;22.10;99.90
31527;DHT22;18136;42.236;-73.040;2022-08-07T06:33:48;22.10;99.90
31527;DHT22;18136;42.236;-73.040;2022-08-07T06:36:15;22.10;99.90
31527;DHT22;18136;42.236;-73.040;2022-08-07T06:38:42;22.10;99.90
31527;DHT22;18136;42.236;-73.040;2022-08-07T06:41:14;22.00;99.90
31527;DHT22;18136;42.236;-73.040;2022-08-07T06:43:44;22.00;99.90
31527;DHT22;18136;42.236;-73.040;2022-08-07T06:46:10;22.10;99.90
31527;DHT22;18136;42.236;-73.040;2022-08-07T06:48:37;22.00;99.90
31527;DHT22;18136;42.236;-73.040;2022-08-07T06:51:07;22.10;99.90
31527;DHT22;18136;42.236;-73.040;2022-08-07T06:53:37;22.00;99.90
31527;DHT22;18136;42.236;-73.040;2022-08-07T06:56:05;22.00;99.90
31527;DHT22;18136;42.236;-73.040;2022-08-07T06:58:33;22.00;99.90
31527;DHT22;18136;42.236;-73.040;2022-08-07T07:01:03;22.00;99.90
31527;DHT22;18136;42.236;-73.040;2022-08-07T07:03:32;22.00;99.90
31527;DHT22;18136;42.236;-73.040;2022-08-07T07:06:01;22.00;99.90
31527;DHT22;18136;42.236;-73.040;2022-08-07T07:08:28;21.90;99.90
31527;DHT22;18136;42.236;-73.040;2022-08-07T07:10:55;22.00;99.90
31527;DHT22;18136;42.236;-73.040;2022-08-07T07:13:33;22.00;99.90
31527;DHT22;18136;42.236;-73.040;2022-08-07T07:16:07;21.90;99.90
31527;DHT22;18136;42.236;-73.040;2022-08-07T07:18:43;21.90;99.90
31527;DHT22;18136;42.236;-73.040;2022-08-07T07:21:21;21.90;99.90
31527;DHT22;18136;42.236;-73.040;2022-08-07T07:23:48;21.90;99.90
31527;DHT22;18136;42.236;-73.040;2022-08-07T07:26:18;21.90;99.90
31527;DHT22;18136;42.236;-73.040;2022-08-07T07:28:51;21.80;99.90
31527;DHT22;18136;42.236;-73.040;2022-08-07T07:31:24;21.90;99.90
31527;DHT22;18136;42.236;-73.040;2022-08-07T07:33:55;21.80;99.90
31527;DHT22;18136;42.236;-73.040;2022-08-07T07:36:23;21.80;99.90
31527;DHT22;18136;42.236;-73.040;2022-08-07T07:38:50;21.80;99.90
31527;DHT22;18136;42.236;-73.040;2022-08-07T07:41:20;21.80;99.90
31527;DHT22;18136;42.236;-73.040;2022-08-07T07:43:50;21.70;99.90
31527;DHT22;18136;42.236;-73.040;2022-08-07T07:46:17;21.70;99.90
31527;DHT22;18136;42.236;-73.040;2022-08-07T07:48:46;21.70;99.90
31527;DHT22;18136;42.236;-73.040;2022-08-07T07:51:14;21.70;99.90
31527;DHT22;18136;42.236;-73.040;2022-08-07T07:53:44;21.70;99.90
31527;DHT22;18136;42.236;-73.040;2022-08-07T07:56:12;21.70;99.90
31527;DHT22;18136;42.236;-73.040;2022-08-07T07:58:39;21.70;99.90
31527;DHT22;18136;42.236;-73.040;2022-08-07T08:01:10;21.70;99.90
31527;DHT22;18136;42.236;-73.040;2022-08-07T08:03:38;21.60;99.90
31527;DHT22;18136;42.236;-73.040;2022-08-07T08:06:06;21.70;99.90
31527;DHT22;18136;42.236;-73.040;2022-08-07T08:08:33;21.60;99.90
31527;DHT22;18136;42.236;-73.040;2022-08-07T08:11:00;21.70;99.90
31527;DHT22;18136;42.236;-73.040;2022-08-07T08:13:28;21.60;99.90
31527;DHT22;18136;42.236;-73.040;2022-08-07T08:16:00;21.60;99.90
31527;DHT22;18136;42.236;-73.040;2022-08-07T08:18:27;21.60;99.90
31527;DHT22;18136;42.236;-73.040;2022-08-07T08:20:57;21.60;99.90
31527;DHT22;18136;42.236;-73.040;2022-08-07T08:23:26;21.60;99.90
31527;DHT22;18136;42.236;-73.040;2022-08-07T08:26:13;21.60;99.90
31527;DHT22;18136;42.236;-73.040;2022-08-07T08:28:59;21.50;99.90
31527;DHT22;18136;42.236;-73.040;2022-08-07T08:31:29;21.60;99.90
31527;DHT22;18136;42.236;-73.040;2022-08-07T08:34:03;21.50;99.90
31527;DHT22;18136;42.236;-73.040;2022-08-07T08:36:32;21.40;99.90
31527;DHT22;18136;42.236;-73.040;2022-08-07T08:39:01;21.50;99.90
31527;DHT22;18136;42.236;-73.040;2022-08-07T08:41:55;21.40;99.90
31527;DHT22;18136;42.236;-73.040;2022-08-07T08:44:34;21.40;99.90
31527;DHT22;18136;42.236;-73.040;2022-08-07T08:47:26;21.40;99.90
31527;DHT22;18136;42.236;-73.040;2022-08-07T08:52:51;21.40;99.90
31527;DHT22;18136;42.236;-73.040;2022-08-07T08:55:20;21.40;99.90
31527;DHT22;18136;42.236;-73.040;2022-08-07T08:58:00;21.30;99.90
31527;DHT22;18136;42.236;-73.040;2022-08-07T09:00:31;21.40;99.90
31527;DHT22;18136;42.236;-73.040;2022-08-07T09:05:55;21.30;99.90
31527;DHT22;18136;42.236;-73.040;2022-08-07T09:08:49;21.30;99.90
31527;DHT22;18136;42.236;-73.040;2022-08-07T09:17:01;21.30;99.90
31527;DHT22;18136;42.236;-73.040;2022-08-07T09:19:47;21.20;99.90
31527;DHT22;18136;42.236;-73.040;2022-08-07T09:22:41;21.30;99.90
31527;DHT22;18136;42.236;-73.040;2022-08-07T09:25:11;21.30;99.90
31527;DHT22;18136;42.236;-73.040;2022-08-07T09:27:51;21.20;99.90
31527;DHT22;18136;42.236;-73.040;2022-08-07T09:30:22;21.20;99.90
31527;DHT22;18136;42.236;-73.040;2022-08-07T09:33:11;21.20;99.90
31527;DHT22;18136;42.236;-73.040;2022-08-07T09:38:47;21.20;99.90
31527;DHT22;18136;42.236;-73.040;2022-08-07T09:44:48;21.10;99.90
31527;DHT22;18136;42.236;-73.040;2022-08-07T09:47:14;21.10;99.90
31527;DHT22;18136;42.236;-73.040;2022-08-07T09:53:01;21.20;99.90
31527;DHT22;18136;42.236;-73.040;2022-08-07T10:04:26;21.20;99.90
31527;DHT22;18136;42.236;-73.040;2022-08-07T10:25:19;21.20;99.90
31527;DHT22;18136;42.236;-73.040;2022-08-07T10:30:42;21.30;99.90
31527;DHT22;18136;42.236;-73.040;2022-08-07T10:41:56;21.20;99.90
31527;DHT22;18136;42.236;-73.040;2022-08-07T10:44:40;21.30;99.90
31527;DHT22;18136;42.236;-73.040;2022-08-07T10:48:08;21.30;99.90
31527;DHT22;18136;42.236;-73.040;2022-08-07T10:50:52;21.30;99.90
31527;DHT22;18136;42.236;-73.040;2022-08-07T10:53:33;21.30;99.90
31527;DHT22;18136;42.236;-73.040;2022-08-07T11:10:46;21.40;99.90
31527;DHT22;18136;42.236;-73.040;2022-08-07T11:13:19;21.40;99.90
31527;DHT22;18136;42.236;-73.040;2022-08-07T11:15:52;21.50;99.90
31527;DHT22;18136;42.236;-73.040;2022-08-07T11:26:55;21.70;99.90
31527;DHT22;18136;42.236;-73.040;2022-08-07T11:29:31;21.70;99.90
31527;DHT22;18136;42.236;-73.040;2022-08-07T11:32:48;21.70;99.90
31527;DHT22;18136;42.236;-73.040;2022-08-07T11:38:29;21.70;99.90
31527;DHT22;18136;42.236;-73.040;2022-08-07T11:41:03;21.80;99.90
31527;DHT22;18136;42.236;-73.040;2022-08-07T11:43:37;21.80;99.90
31527;DHT22;18136;42.236;-73.040;2022-08-07T11:49:12;21.80;99.90
31527;DHT22;18136;42.236;-73.040;2022-08-07T11:55:00;21.90;99.90
31527;DHT22;18136;42.236;-73.040;2022-08-07T11:57:36;21.90;99.90
31527;DHT22;18136;42.236;-73.040;2022-08-07T12:00:31;21.90;99.90
31527;DHT22;18136;42.236;-73.040;2022-08-07T12:03:20;22.00;99.90
31527;DHT22;18136;42.236;-73.040;2022-08-07T12:08:46;22.10;99.90
31527;DHT22;18136;42.236;-73.040;2022-08-07T12:11:22;22.10;99.90
31527;DHT22;18136;42.236;-73.040;2022-08-07T12:14:20;22.10;99.90
31527;DHT22;18136;42.236;-73.040;2022-08-07T12:17:04;22.20;99.90
31527;DHT22;18136;42.236;-73.040;2022-08-07T12:19:58;22.20;99.90
31527;DHT22;18136;42.236;-73.040;2022-08-07T12:31:18;22.30;99.90
31527;DHT22;18136;42.236;-73.040;2022-08-07T12:33:47;22.40;99.90
31527;DHT22;18136;42.236;-73.040;2022-08-07T12:36:15;22.50;99.90
31527;DHT22;18136;42.236;-73.040;2022-08-07T12:38:44;22.50;99.90
31527;DHT22;18136;42.236;-73.040;2022-08-07T12:41:12;22.70;99.90
31527;DHT22;18136;42.236;-73.040;2022-08-07T12:43:39;22.70;99.90
31527;DHT22;18136;42.236;-73.040;2022-08-07T12:52:28;23.10;99.90
31527;DHT22;18136;42.236;-73.040;2022-08-07T12:55:07;23.20;99.90
31527;DHT22;18136;42.236;-73.040;2022-08-07T12:57:38;23.20;99.90
31527;DHT22;18136;42.236;-73.040;2022-08-07T13:00:09;23.30;99.90
31527;DHT22;18136;42.236;-73.040;2022-08-07T13:03:54;23.30;99.90
31527;DHT22;18136;42.236;-73.040;2022-08-07T13:14:03;23.80;99.90
31527;DHT22;18136;42.236;-73.040;2022-08-07T13:16:53;23.80;99.90
31527;DHT22;18136;42.236;-73.040;2022-08-07T13:22:36;24.10;99.90
31527;DHT22;18136;42.236;-73.040;2022-08-07T13:25:16;24.40;99.90
31527;DHT22;18136;42.236;-73.040;2022-08-07T13:27:50;24.60;99.90
31527;DHT22;18136;42.236;-73.040;2022-08-07T13:30:18;24.80;99.90
31527;DHT22;18136;42.236;-73.040;2022-08-07T13:35:49;25.00;99.90
31527;DHT22;18136;42.236;-73.040;2022-08-07T13:41:44;25.00;99.90
31527;DHT22;18136;42.236;-73.040;2022-08-07T13:44:17;25.00;99.90
31527;DHT22;18136;42.236;-73.040;2022-08-07T13:46:45;25.00;99.90
31527;DHT22;18136;42.236;-73.040;2022-08-07T13:49:16;25.00;99.90
31527;DHT22;18136;42.236;-73.040;2022-08-07T13:51:44;25.00;99.90
31527;DHT22;18136;42.236;-73.040;2022-08-07T13:54:13;25.10;99.90
31527;DHT22;18136;42.236;-73.040;2022-08-07T13:56:42;25.20;99.90
31527;DHT22;18136;42.236;-73.040;2022-08-07T13:59:16;25.20;99.90
31527;DHT22;18136;42.236;-73.040;2022-08-07T14:01:51;25.30;99.90
31527;DHT22;18136;42.236;-73.040;2022-08-07T14:04:19;25.50;99.90
31527;DHT22;18136;42.236;-73.040;2022-08-07T14:06:49;25.70;99.90
31527;DHT22;18136;42.236;-73.040;2022-08-07T14:09:22;25.90;99.90
31527;DHT22;18136;42.236;-73.040;2022-08-07T14:11:52;26.10;99.90
31527;DHT22;18136;42.236;-73.040;2022-08-07T14:14:23;26.40;99.90
31527;DHT22;18136;42.236;-73.040;2022-08-07T14:16:53;26.40;99.90
31527;DHT22;18136;42.236;-73.040;2022-08-07T14:19:49;26.70;99.90
31527;DHT22;18136;42.236;-73.040;2022-08-07T14:22:19;26.90;99.90
31527;DHT22;18136;42.236;-73.040;2022-08-07T14:24:50;27.00;99.90
31527;DHT22;18136;42.236;-73.040;2022-08-07T14:27:26;27.20;99.90
31527;DHT22;18136;42.236;-73.040;2022-08-07T14:29:56;27.30;99.90
31527;DHT22;18136;42.236;-73.040;2022-08-07T14:32:24;27.30;99.90
31527;DHT22;18136;42.236;-73.040;2022-08-07T14:34:55;27.40;99.90
31527;DHT22;18136;42.236;-73.040;2022-08-07T14:37:26;27.60;99.90
31527;DHT22;18136;42.236;-73.040;2022-08-07T14:39:53;27.60;99.90
31527;DHT22;18136;42.236;-73.040;2022-08-07T14:42:27;27.60;99.90
31527;DHT22;18136;42.236;-73.040;2022-08-07T14:44:57;27.70;99.90
31527;DHT22;18136;42.236;-73.040;2022-08-07T14:47:25;27.50;99.90
31527;DHT22;18136;42.236;-73.040;2022-08-07T14:49:55;27.60;99.90
31527;DHT22;18136;42.236;-73.040;2022-08-07T14:52:23;27.60;99.90
31527;DHT22;18136;42.236;-73.040;2022-08-07T14:54:50;27.60;99.90
31527;DHT22;18136;42.236;-73.040;2022-08-07T14:57:18;27.80;99.90
31527;DHT22;18136;42.236;-73.040;2022-08-07T14:59:46;27.90;99.90
31527;DHT22;18136;42.236;-73.040;2022-08-07T15:02:16;28.00;99.90
31527;DHT22;18136;42.236;-73.040;2022-08-07T15:04:43;28.10;99.90
31527;DHT22;18136;42.236;-73.040;2022-08-07T15:07:19;28.30;99.90
31527;DHT22;18136;42.236;-73.040;2022-08-07T15:09:50;28.30;99.90
31527;DHT22;18136;42.236;-73.040;2022-08-07T15:12:23;28.40;99.90
31527;DHT22;18136;42.236;-73.040;2022-08-07T15:14:54;28.40;99.90
31527;DHT22;18136;42.236;-73.040;2022-08-07T15:17:29;28.30;99.90
31527;DHT22;18136;42.236;-73.040;2022-08-07T15:20:10;28.40;99.90
31527;DHT22;18136;42.236;-73.040;2022-08-07T15:22:48;28.60;99.90
31527;DHT22;18136;42.236;-73.040;2022-08-07T15:25:23;28.60;99.90
31527;DHT22;18136;42.236;-73.040;2022-08-07T15:28:02;28.50;99.90
31527;DHT22;18136;42.236;-73.040;2022-08-07T15:30:30;28.60;99.90
31527;DHT22;18136;42.236;-73.040;2022-08-07T15:33:02;28.70;99.90
31527;DHT22;18136;42.236;-73.040;2022-08-07T15:35:30;28.80;99.90
31527;DHT22;18136;42.236;-73.040;2022-08-07T15:37:59;28.90;99.90
31527;DHT22;18136;42.236;-73.040;2022-08-07T15:40:29;29.00;99.90
31527;DHT22;18136;42.236;-73.040;2022-08-07T15:45:40;29.20;99.90
31527;DHT22;18136;42.236;-73.040;2022-08-07T15:50:44;29.10;99.90
31527;DHT22;18136;42.236;-73.040;2022-08-07T15:53:37;28.90;99.90
31527;DHT22;18136;42.236;-73.040;2022-08-07T15:56:05;28.90;99.90
31527;DHT22;18136;42.236;-73.040;2022-08-07T15:58:54;28.90;99.90
31527;DHT22;18136;42.236;-73.040;2022-08-07T16:01:38;29.00;99.90
31527;DHT22;18136;42.236;-73.040;2022-08-07T16:04:08;29.10;99.90
31527;DHT22;18136;42.236;-73.040;2022-08-07T16:06:38;29.40;99.90
31527;DHT22;18136;42.236;-73.040;2022-08-07T16:14:35;29.40;99.90
31527;DHT22;18136;42.236;-73.040;2022-08-07T16:29:23;29.00;99.90
31527;DHT22;18136;42.236;-73.040;2022-08-07T16:31:57;29.20;99.90
31527;DHT22;18136;42.236;-73.040;2022-08-07T16:34:37;29.40;99.90
31527;DHT22;18136;42.236;-73.040;2022-08-07T16:40:22;29.50;99.90
31527;DHT22;18136;42.236;-73.040;2022-08-07T16:51:51;29.80;99.90
31527;DHT22;18136;42.236;-73.040;2022-08-07T16:54:52;29.80;99.90
31527;DHT22;18136;42.236;-73.040;2022-08-07T17:00:03;30.00;99.90
31527;DHT22;18136;42.236;-73.040;2022-08-07T17:08:36;30.20;99.90
31527;DHT22;18136;42.236;-73.040;2022-08-07T17:11:12;30.10;99.90
31527;DHT22;18136;42.236;-73.040;2022-08-07T17:13:59;30.00;99.90
31527;DHT22;18136;42.236;-73.040;2022-08-07T17:16:56;29.90;99.90
31527;DHT22;18136;42.236;-73.040;2022-08-07T17:22:04;30.00;99.90
31527;DHT22;18136;42.236;-73.040;2022-08-07T17:24:41;30.00;99.90
31527;DHT22;18136;42.236;-73.040;2022-08-07T17:27:28;29.90;99.90
31527;DHT22;18136;42.236;-73.040;2022-08-07T17:30:05;29.90;99.90
31527;DHT22;18136;42.236;-73.040;2022-08-07T17:35:17;29.80;99.90
31527;DHT22;18136;42.236;-73.040;2022-08-07T17:38:05;29.90;99.90
31527;DHT22;18136;42.236;-73.040;2022-08-07T17:43:16;29.60;99.90
31527;DHT22;18136;42.236;-73.040;2022-08-07T17:45:55;29.60;99.90
31527;DHT22;18136;42.236;-73.040;2022-08-07T17:48:49;29.70;99.90
31527;DHT22;18136;42.236;-73.040;2022-08-07T17:51:29;29.80;99.90
31527;DHT22;18136;42.236;-73.040;2022-08-07T17:54:12;29.90;99.90
31527;DHT22;18136;42.236;-73.040;2022-08-07T17:56:51;30.00;99.90
31527;DHT22;18136;42.236;-73.040;2022-08-07T17:59:31;29.90;99.90
31527;DHT22;18136;42.236;-73.040;2022-08-07T18:02:31;29.90;99.90
31527;DHT22;18136;42.236;-73.040;2022-08-07T18:05:05;29.80;99.90
31527;DHT22;18136;42.236;-73.040;2022-08-07T18:07:37;29.80;99.90
31527;DHT22;18136;42.236;-73.040;2022-08-07T18:16:23;29.60;99.90
31527;DHT22;18136;42.236;-73.040;2022-08-07T18:19:08;29.60;99.90
31527;DHT22;18136;42.236;-73.040;2022-08-07T18:21:38;29.50;99.90
31527;DHT22;18136;42.236;-73.040;2022-08-07T18:24:44;29.40;99.90
31527;DHT22;18136;42.236;-73.040;2022-08-07T18:35:32;29.40;99.90
31527;DHT22;18136;42.236;-73.040;2022-08-07T18:44:20;29.30;99.90
31527;DHT22;18136;42.236;-73.040;2022-08-07T18:47:10;29.10;99.90
31527;DHT22;18136;42.236;-73.040;2022-08-07T18:55:23;29.00;99.90
31527;DHT22;18136;42.236;-73.040;2022-08-07T19:00:51;28.80;99.90
31527;DHT22;18136;42.236;-73.040;2022-08-07T19:03:36;28.70;99.90
31527;DHT22;18136;42.236;-73.040;2022-08-07T19:06:25;28.60;99.90
31527;DHT22;18136;42.236;-73.040;2022-08-07T19:11:37;28.60;99.90
31527;DHT22;18136;42.236;-73.040;2022-08-07T19:14:16;28.50;99.90
31527;DHT22;18136;42.236;-73.040;2022-08-07T19:16:52;28.50;99.90
31527;DHT22;18136;42.236;-73.040;2022-08-07T19:25:14;28.70;99.90
31527;DHT22;18136;42.236;-73.040;2022-08-07T19:27:43;28.70;99.90
31527;DHT22;18136;42.236;-73.040;2022-08-07T19:30:12;28.60;99.90
31527;DHT22;18136;42.236;-73.040;2022-08-07T19:32:41;28.50;99.90